Thursday, February 26, 2015, 11:01 PM EST
Back to Local

KLEB, Lebanon Municipal Airport

Location: Lebanon, NH, United States Lat: 43.633
Local Time: 11:01 PM EST ( 4:01 GMT) Lon: -72.3
Time Zone: US/Eastern Elev: 597 ft

Show me the last for .
Show Coded

Time T Td Feel RH Dir Speed Gust Alt SLP Vis Weather Sky Remarks
2015-02-26 21:53 14 -5 4 41 340° 7 - 30.09 30.14 10 OVC080 None
2015-02-26 20:53 14 -5 3 41 360° 8 - 30.07 30.12 10 OVC075 None
2015-02-26 19:53 16 -2 4 44 20° 9 - 30.05 - 10 OVC090 None
2015-02-26 18:53 15 -3 6 43 10° 6 - 30.04 30.09 10 BKN100 BKN120 6-hr Min Temp (7pm): 14.0°F
6-hr Max Temp (7pm): 19.0°F
2015-02-26 17:53 15 -2 6 45 40° 6 - 30.01 30.06 10 SCT095 None
2015-02-26 16:53 18 -4 8 36 360° 8 - 29.99 30.04 10 OVC100 None
2015-02-26 15:53 19 -5 12 33 340° 5 - 29.98 30.03 10 CLR None
2015-02-26 14:53 19 -5 12 33 Variable 5 - 29.98 30.03 10 FEW085 None
2015-02-26 13:53 18 -4 8 36 330° 8 - 29.98 30.04 10 SCT095 None
2015-02-26 12:53 16 -6 7 36 Variable 6 - 30.02 30.07 10 CLR 6-hr Min Temp (1pm): 8.1°F
6-hr Max Temp (1pm): 17.1°F
2015-02-26 11:53 14 -6 4 39 340° 7 - 30.05 30.10 10 CLR None
2015-02-26 10:53 12 -7 4 41 50° 5 - 30.07 30.12 10 FEW095 None
2015-02-26 09:53 10 -7 -1 44 30° 7 - 30.08 30.13 10 OVC090 None
2015-02-26 08:53 9 -6 -3 50 360° 7 - 30.10 - 10 OVC090 None
2015-02-26 07:53 9 -5 -2 51 360° 7 - 30.10 30.14 10 OVC100 None
2015-02-26 06:53 8 -3 0 59 30° 5 - 30.06 30.11 10 CLR 6-hr Min Temp (7am): 1.0°F
6-hr Max Temp (7am): 9.0°F
2015-02-26 05:53 9 -3 1 57 20° 5 - 30.05 30.10 10 CLR None
2015-02-26 04:53 7 -2 - 65 - Calm - 30.06 30.10 10 CLR None
2015-02-26 03:53 8 -1 -2 65 20° 6 - 30.04 30.08 10 CLR None
2015-02-26 02:53 7 -1 -5 69 20° 7 - 30.04 30.09 10 CLR None
2015-02-26 01:53 2 -4 -6 75 110° 3 - 30.03 30.08 10 CLR None
2015-02-26 00:53 6 -3 - 65 - Calm - 30.01 30.05 10 FEW040 6-hr Min Temp (1am): 5.0°F
6-hr Max Temp (1am): 23.0°F
2015-02-25 23:53 13 0 - 55 - Calm - 29.98 30.02 10 CLR 24-hr Min Temp (12am): 3.9°F
24-hr Max Temp (12am): 30.0°F

Support USWX by starting your Amazon purchase here.